Friday, March 27, 2015, 4:51 PM EDT
Back to Local

KGKJ, Port Meadville Airport

Location: Meadville, PA, United States Lat: 41.633
Local Time: 4:51 PM EDT (20:51 GMT) Lon: -80.217
Time Zone: US/Eastern Elev: 1400 ft

Show me the last for .
Show Coded

Time T Td Feel RH Dir Speed Gust Alt SLP Vis Weather Sky Remarks
2015-03-27 16:29 24 19 11 80 320° 14 17 29.88 - 1 -SN FEW007 BKN013 OVC036 1-hr Precip Total: Trace
2015-03-27 16:21 24 20 14 83 320° 9 - 29.87 - 0 -SN FZFG FEW007 BKN015 OVC036 1-hr Precip Total: Trace
2015-03-27 16:07 25 19 16 77 310° 8 - 29.87 - 1 -SN SCT015 BKN021 OVC035 1-hr Precip Total: Trace
2015-03-27 15:53 26 19 18 74 Variable 7 - 29.87 29.92 2 -SN BKN020 OVC037 1-hr Precip Total: Trace
2015-03-27 15:43 26 18 18 70 310° 8 - 29.87 - 7 -SN SCT021 SCT026 OVC037 1-hr Precip Total: Trace
2015-03-27 14:53 26 16 15 65 280° 13 - 29.88 29.92 9 BKN027 OVC037 1-hr Precip Total: Trace
2015-03-27 13:53 26 17 16 68 300° 10 - 29.88 29.92 9 BKN019 OVC033 1-hr Precip Total: Trace
6-hr Precip Total (2pm): 0.00"
6-hr Min Temp (2pm): 26.1°F
6-hr Max Temp (2pm): 28.9°F
2015-03-27 13:13 26 19 16 74 280° 12 - 29.88 - 4 -SN SCT019 BKN024 OVC030 1-hr Precip Total: Trace
2015-03-27 12:53 27 18 17 68 280° 12 - 29.88 29.92 5 -SN SCT023 OVC030 1-hr Precip Total: Trace
2015-03-27 12:38 28 18 19 65 260° 10 - 29.88 - 10 SCT023 BKN028 OVC040 1-hr Precip Total: Trace
2015-03-27 12:17 28 19 20 68 290° 8 - 29.88 - 10 FEW021 SCT028 OVC043 1-hr Precip Total: Trace
2015-03-27 11:53 28 20 19 71 280° 10 - 29.88 29.91 8 -SN BKN019 BKN025 OVC045 1-hr Precip Total: Trace
2015-03-27 11:33 28 21 21 74 290° 7 - 29.87 - 6 -SN BKN015 OVC020 1-hr Precip Total: Trace
2015-03-27 10:53 27 22 19 80 290° 7 - 29.87 29.91 7 -SN OVC010 1-hr Precip Total: Trace
6-hr Precip Total (11am): 0.00"
2015-03-27 09:53 26 22 18 84 300° 8 - 29.87 29.91 5 -SN BR OVC008 1-hr Precip Total: Trace
2015-03-27 09:08 27 23 17 84 300° 10 - 29.85 - 5 -SN BR BKN009 OVC013 1-hr Precip Total: Trace
2015-03-27 08:53 27 23 18 84 330° 9 - 29.85 29.89 4 -SN BR OVC011 1-hr Precip Total: Trace
2015-03-27 08:46 28 23 19 81 320° 9 - 29.85 - 3 -SN OVC011 1-hr Precip Total: Trace
2015-03-27 08:26 28 24 19 84 310° 9 - 29.85 - 2 -SN BR BKN008 OVC017 1-hr Precip Total: Trace
2015-03-27 08:16 28 24 20 84 310° 8 - 29.84 - 4 -SN BR BKN010 OVC017 1-hr Precip Total: Trace
2015-03-27 08:07 28 24 19 84 320° 9 - 29.84 - 3 -SN BR FEW007 OVC015 1-hr Precip Total: Trace
2015-03-27 07:59 29 24 24 81 320° 5 - 29.84 - 2 -SN BKN010 OVC015 1-hr Precip Total: Trace
2015-03-27 07:53 29 24 21 81 320° 8 - 29.84 29.88 4 -SN OVC015 1-hr Precip Total: Trace
6-hr Precip Total (8am): 0.00"
24-hr Precip Total (8am): 0.37"
6-hr Min Temp (8am): 28.9°F
6-hr Max Temp (8am): 33.1°F
2015-03-27 07:48 28 25 21 86 330° 7 - 29.83 - 5 -SN OVC015 1-hr Precip Total: Trace
2015-03-27 06:53 29 24 20 81 300° 9 - 29.83 29.87 7 -SN OVC010 1-hr Precip Total: Trace
2015-03-27 06:22 30 25 22 81 310° 8 - 29.83 - 8 -SN OVC012 1-hr Precip Total: Trace
2015-03-27 06:11 30 26 24 84 300° 6 - 29.83 - 10 BKN009 OVC014 None
2015-03-27 05:43 31 27 25 85 320° 6 - 29.84 - 10 BKN009 OVC015 None
2015-03-27 04:53 31 27 24 85 320° 7 - 29.83 29.86 10 OVC013 None
2015-03-27 04:30 32 27 26 81 Variable 7 - 29.83 - 7 FEW010 BKN013 OVC020 None
2015-03-27 04:15 32 27 27 81 320° 5 - 29.83 - 9 SCT011 BKN020 OVC033 None
2015-03-27 04:05 32 28 26 85 330° 6 - 29.83 - 7 SCT009 BKN014 OVC038 None
2015-03-27 03:40 32 30 27 92 310° 5 - 29.83 - 4 BR SCT011 BKN025 OVC050 None
2015-03-27 03:33 32 30 29 92 310° 3 - 29.83 - 4 BR FEW013 SCT025 OVC050 None
2015-03-27 03:13 32 30 29 92 260° 3 - 29.84 - 2 BR FEW024 OVC050 None
2015-03-27 02:53 33 30 29 88 250° 5 - 29.84 29.87 4 BR FEW031 OVC050 None
2015-03-27 01:53 33 30 28 88 270° 6 - 29.83 29.86 3 BR FEW005 SCT035 OVC050 6-hr Min Temp (2am): 33.1°F
6-hr Max Temp (2am): 34.0°F
2015-03-27 00:53 33 31 30 91 280° 3 - 29.83 29.86 5 BR FEW007 SCT028 OVC050 24-hr Min Temp (1am): 33.1°F
24-hr Max Temp (1am): 46.9°F
2015-03-27 00:46 33 31 29 91 280° 5 - 29.84 - 5 BR SCT007 BKN028 OVC050 None
2015-03-26 23:53 34 31 27 88 290° 8 - 29.84 29.87 6 BR OVC006 None
2015-03-26 23:25 34 31 29 88 270° 6 - 29.85 - 5 BR BKN005 OVC010 None
2015-03-26 22:53 33 31 27 91 280° 7 - 29.84 29.87 5 BR OVC004 None
2015-03-26 21:53 34 31 27 88 260° 8 - 29.85 29.88 7 OVC004 None
2015-03-26 20:53 34 31 27 88 260° 8 - 29.85 29.88 8 OVC006 None
2015-03-26 19:53 34 31 30 88 270° 5 - 29.84 29.87 10 BKN007 BKN012 OVC023 6-hr Precip Total (8pm): 0.02"
6-hr Min Temp (8pm): 34.0°F
6-hr Max Temp (8pm): 39.0°F
2015-03-26 19:43 34 31 30 88 290° 5 - 29.84 - 10 SCT008 BKN012 OVC023 None
2015-03-26 18:53 34 31 29 88 300° 6 - 29.82 29.85 10 OVC005 1-hr Precip Total: Trace
2015-03-26 18:29 34 31 30 88 290° 5 - 29.81 - 10 OVC005 1-hr Precip Total: Trace
2015-03-26 17:53 34 31 29 88 320° 6 - 29.79 29.82 7 -SN OVC004 1-hr Precip Total: Trace
2015-03-26 16:53 36 33 30 89 310° 7 - 29.79 29.82 10 OVC004 1-hr Precip Total: Trace
6-hr Precip Total (5pm): 0.02"

Support USWX by starting your Amazon purchase here.